Terminal Aerodrome Forecast
Issued by NWS

Home | Current Version | Previous Version | Graphics & Text | Print | Product List | Glossary On
Versions: 1 2 3 4 5 6 7 8 9 10 11 12 13 14 15 16 17 18 19 20 21 22 23 24 25 26
346
FTUS43 KABR 172325
TAFATY
TAF
KATY 172325Z 1800/1824 18007KT P6SM SCT090 SCT110
     FM180300 15004KT P6SM BKN110
     FM181100 16008KT P6SM BKN200
     FM181500 16012KT P6SM SCT070=

USA.gov is the U.S. government's official web portal to all federal, state and local government web resources and services.